Time;durP1;ratioP1;P1;durP2;ratioP2;P2;SDS_P1;SDS_P2;PMS_P1;PMS_P2;Temp;Humidity;BMP_temperature;BMP_pressure;BME280_temperature;BME280_humidity;BME280_pressure;Samples;Min_cycle;Max_cycle;Signal;HPM_P1;HPM_P2
2022/10/17 00:00:33;;;;;;;7.50;4.43;;;;;;;5.31;87.43;98357.94;5043553;28;20049;-58
2022/10/17 00:03:00;;;;;;;9.95;4.70;;;;;;;5.29;88.30;98368.41;5043944;28;20136;-56
2022/10/17 00:05:27;;;;;;;7.22;4.40;;;;;;;5.27;88.04;98367.88;5043795;28;20111;-56
2022/10/17 00:07:54;;;;;;;9.38;4.57;;;;;;;5.30;88.01;98364.53;5043907;28;20458;-56
2022/10/17 00:10:21;;;;;;;7.78;4.53;;;;;;;5.28;88.01;98366.78;5043419;28;20526;-57
2022/10/17 00:12:50;;;;;;;9.77;5.65;;;;;;;5.26;88.41;98371.75;5043951;28;20048;-56
2022/10/17 00:15:19;;;;;;;12.32;6.10;;;;;;;5.33;88.72;98374.91;5042246;28;20505;-59
2022/10/17 00:17:46;;;;;;;12.30;5.68;;;;;;;4.69;88.80;98287.97;5044235;28;20360;-56
2022/10/17 00:20:13;;;;;;;10.88;5.25;;;;;;;5.36;88.09;98379.81;5042538;28;20061;-56
2022/10/17 00:22:39;;;;;;;8.88;4.75;;;;;;;5.28;87.93;98367.56;5044037;28;20053;-55
2022/10/17 00:25:06;;;;;;;8.63;5.10;;;;;;;5.31;88.38;98385.41;5047099;28;20064;-58
2022/10/17 00:27:35;;;;;;;10.00;5.18;;;;;;;5.19;88.10;98374.06;5046314;28;20128;-58
2022/10/17 00:30:03;;;;;;;8.50;4.95;;;;;;;5.23;88.50;98366.88;5046936;28;20139;-56
2022/10/17 00:32:30;;;;;;;7.20;4.25;;;;;;;3.74;87.02;98133.34;5046327;28;20126;-57
2022/10/17 00:34:57;;;;;;;6.80;3.53;;;;;;;5.26;87.05;98374.50;5046091;28;20076;-56
2022/10/17 00:37:24;;;;;;;8.57;4.18;;;;;;;4.88;87.44;98346.38;5047149;28;20057;-56
2022/10/17 00:39:51;;;;;;;8.85;4.47;;;;;;;5.11;87.23;98396.75;5045924;28;20135;-56
2022/10/17 00:42:17;;;;;;;8.18;3.92;;;;;;;4.99;87.81;98377.19;5046855;28;20496;-56
2022/10/17 00:44:46;;;;;;;7.82;3.78;;;;;;;5.03;88.21;98380.97;5045646;28;20057;-56
2022/10/17 00:47:17;;;;;;;6.85;3.80;;;;;;;4.96;88.83;98383.28;5047242;28;20080;-56
2022/10/17 00:49:44;;;;;;;6.63;3.78;;;;;;;4.99;88.06;98375.28;5046919;28;20128;-56
2022/10/17 00:52:16;;;;;;;7.00;3.60;;;;;;;4.89;87.90;98352.66;5046723;28;20056;-56
2022/10/17 00:54:48;;;;;;;5.60;2.90;;;;;;;5.02;88.43;98379.34;5046853;28;20084;-56
2022/10/17 00:57:15;;;;;;;5.63;3.25;;;;;;;4.59;86.73;98321.09;5045126;28;20585;-55
2022/10/17 00:59:46;;;;;;;7.47;3.35;;;;;;;4.93;86.09;98381.97;5046977;28;20049;-58
2022/10/17 01:02:16;;;;;;;7.32;3.25;;;;;;;4.90;85.41;98382.56;5046849;28;20111;-56
2022/10/17 01:04:46;;;;;;;8.07;3.58;;;;;;;4.84;85.94;98391.22;5045553;28;20049;-57
2022/10/17 01:07:12;;;;;;;5.38;3.08;;;;;;;4.71;86.63;98389.22;5046532;28;20053;-58
2022/10/17 01:09:41;;;;;;;8.50;3.17;;;;;;;4.58;87.94;98391.59;5046620;28;20088;-55
2022/10/17 01:12:17;;;;;;;6.45;3.33;;;;;;;4.64;88.32;98395.91;5045301;28;20052;-56
2022/10/17 01:15:02;;;;;;;5.53;3.35;;;;;;;4.60;87.44;98397.63;5045024;28;20502;-56
2022/10/17 01:17:47;;;;;;;7.10;4.55;;;;;;;4.49;88.68;98390.66;5047054;28;20060;-56
2022/10/17 01:20:13;;;;;;;9.25;5.07;;;;;;;4.46;89.96;98388.50;5044842;28;20048;-56
2022/10/17 01:22:48;;;;;;;15.18;5.60;;;;;;;4.54;89.99;98387.84;5046717;28;20138;-55
2022/10/17 01:25:54;;;;;;;10.57;5.65;;;;;;;4.60;90.54;98389.38;5046127;28;20635;-55
2022/10/17 01:28:36;;;;;;;15.15;6.32;;;;;;;4.37;89.68;98329.97;5046784;28;20134;-56
2022/10/17 01:31:12;;;;;;;16.45;6.65;;;;;;;3.52;88.63;98207.94;5046109;28;20049;-55
2022/10/17 01:33:53;;;;;;;10.13;4.65;;;;;;;4.09;88.85;98311.75;5046232;28;20148;-56
2022/10/17 01:36:42;;;;;;;10.32;4.70;;;;;;;4.61;88.73;98396.50;5044789;28;20150;-56
2022/10/17 01:39:12;;;;;;;8.68;4.68;;;;;;;4.50;88.64;98411.47;5046340;28;20130;-56
2022/10/17 01:41:48;;;;;;;9.98;5.80;;;;;;;3.68;88.76;98266.88;5044748;28;20056;-57
2022/10/17 01:44:39;;;;;;;9.50;4.55;;;;;;;4.36;89.52;98405.09;5044541;28;20557;-57
2022/10/17 01:47:12;;;;;;;6.65;3.90;;;;;;;1.29;88.40;97901.38;5045981;28;20140;-57
2022/10/17 01:49:42;;;;;;;11.77;4.47;;;;;;;4.36;88.25;98387.84;5044532;28;20578;-57
2022/10/17 01:52:14;;;;;;;8.85;3.83;;;;;;;2.82;88.09;98141.31;5044844;28;20119;-59
2022/10/17 01:54:48;;;;;;;7.85;3.13;;;;;;;4.39;88.00;98403.72;5045609;28;20540;-57
2022/10/17 01:57:29;;;;;;;7.55;3.28;;;;;;;4.40;86.47;98389.72;5045832;28;20135;-58
2022/10/17 01:59:57;;;;;;;6.13;2.95;;;;;;;4.41;87.13;98380.34;5044578;28;20068;-57
2022/10/17 02:02:25;;;;;;;7.07;3.40;;;;;;;4.34;88.08;98396.38;5045661;28;20148;-55
2022/10/17 02:04:54;;;;;;;6.78;2.97;;;;;;;3.93;88.83;98320.50;5045816;28;20561;-56
2022/10/17 02:07:21;;;;;;;6.50;2.85;;;;;;;3.98;88.54;98321.22;5045758;28;20522;-56
2022/10/17 02:09:47;;;;;;;6.97;2.65;;;;;;;4.43;88.34;98405.56;5045586;28;20140;-56
2022/10/17 02:12:14;;;;;;;7.05;3.00;;;;;;;4.38;88.65;98402.91;5045791;28;20057;-55
2022/10/17 02:14:40;;;;;;;6.20;2.85;;;;;;;4.44;88.38;98417.38;5044340;28;20100;-55
2022/10/17 02:17:13;;;;;;;7.32;2.33;;;;;;;4.45;88.04;98414.31;5044342;28;20076;-56
2022/10/17 02:20:08;;;;;;;5.90;3.25;;;;;;;4.39;89.04;98417.44;5044058;28;20486;-56
2022/10/17 02:22:51;;;;;;;19.40;9.65;;;;;;;4.43;89.23;98419.28;5045760;28;20048;-57
2022/10/17 02:25:41;;;;;;;69.00;34.67;;;;;;;4.38;89.05;98418.53;5039752;28;20084;-56
2022/10/17 02:28:13;;;;;;;58.88;32.95;;;;;;;4.26;87.82;98421.75;5052648;28;20171;-56
2022/10/17 02:30:45;;;;;;;14.82;8.85;;;;;;;4.18;87.75;98419.66;5044980;28;20060;-56
2022/10/17 02:33:24;;;;;;;13.85;7.00;;;;;;;4.02;88.98;98418.22;5044015;28;20626;-56
2022/10/17 02:35:55;;;;;;;12.02;5.22;;;;;;;4.15;89.56;98419.41;5044847;28;20127;-57
2022/10/17 02:38:26;;;;;;;62.42;20.45;;;;;;;4.16;89.04;98423.78;5043385;28;20110;-56
2022/10/17 02:40:54;;;;;;;63.25;20.08;;;;;;;4.19;89.10;98454.19;5043476;28;20080;-57
2022/10/17 02:43:22;;;;;;;32.00;10.98;;;;;;;3.24;89.68;98277.31;5044868;28;20060;-58
2022/10/17 02:45:50;;;;;;;14.20;6.22;;;;;;;4.21;89.95;98432.78;5044491;28;20087;-57
2022/10/17 02:48:29;;;;;;;8.98;5.10;;;;;;;4.25;88.81;98420.09;5045032;28;20045;-56
2022/10/17 02:51:14;;;;;;;12.98;6.68;;;;;;;4.11;89.39;98419.19;5044487;28;20060;-56
2022/10/17 02:53:41;;;;;;;33.42;24.42;;;;;;;4.20;88.05;98427.59;5042983;28;20491;-57
2022/10/17 02:56:15;;;;;;;29.73;20.90;;;;;;;3.88;90.17;98447.47;5044707;28;20106;-57
2022/10/17 02:58:47;;;;;;;24.95;17.55;;;;;;;4.07;89.06;98461.22;5044211;28;20057;-57
2022/10/17 03:01:15;;;;;;;21.25;15.35;;;;;;;3.69;88.29;98401.94;5044998;28;20061;-57
2022/10/17 03:03:42;;;;;;;23.70;13.77;;;;;;;3.21;88.41;98305.28;5043109;28;20088;-57
2022/10/17 03:06:09;;;;;;;23.38;10.98;;;;;;;3.96;88.82;98466.00;5043267;28;20145;-57
2022/10/17 03:08:35;;;;;;;40.83;16.58;;;;;;;3.86;90.41;98427.75;5044593;28;20053;-57
2022/10/17 03:11:07;;;;;;;13.07;8.27;;;;;;;3.97;91.57;98429.25;5044879;28;20492;-57
2022/10/17 03:13:34;;;;;;;15.55;7.80;;;;;;;3.50;90.62;98355.34;5043263;28;20101;-56
2022/10/17 03:16:05;;;;;;;27.38;11.45;;;;;;;3.77;90.98;98388.41;5043177;28;20060;-56
2022/10/17 03:18:32;;;;;;;20.40;8.85;;;;;;;3.73;92.16;98373.66;5044414;28;20055;-57
2022/10/17 03:20:58;;;;;;;10.07;4.53;;;;;;;4.13;93.84;98425.19;5035774;28;20104;-57
2022/10/17 03:23:25;;;;;;;42.63;15.80;;;;;;;3.80;92.64;98396.03;5024421;28;20554;-57
2022/10/17 03:25:52;;;;;;;12.10;5.63;;;;;;;4.03;93.45;98422.59;5024349;28;20049;-56
2022/10/17 03:28:18;;;;;;;11.48;6.50;;;;;;;3.74;91.47;98386.25;5023084;28;20129;-58
2022/10/17 03:30:45;;;;;;;12.80;5.78;;;;;;;4.14;90.81;98429.56;5024181;28;20085;-56
2022/10/17 03:33:12;;;;;;;10.65;5.82;;;;;;;3.20;90.29;98276.28;5024644;28;20049;-57
2022/10/17 03:35:39;;;;;;;11.05;5.85;;;;;;;4.25;90.54;98433.00;5024447;28;20085;-56
2022/10/17 03:38:06;;;;;;;14.95;7.20;;;;;;;4.13;89.58;98422.47;5024565;28;20053;-58
2022/10/17 03:40:32;;;;;;;14.35;7.80;;;;;;;4.28;88.72;98435.94;5024584;28;20064;-56
2022/10/17 03:42:59;;;;;;;16.55;9.43;;;;;;;4.32;88.32;98431.53;5024097;28;20150;-57
2022/10/17 03:45:25;;;;;;;20.48;9.40;;;;;;;4.11;88.89;98432.09;5023587;28;20152;-57
2022/10/17 03:47:52;;;;;;;17.83;9.77;;;;;;;3.75;89.88;98363.22;5024399;28;20096;-56
2022/10/17 03:50:19;;;;;;;19.33;10.30;;;;;;;3.37;90.32;98342.34;4995086;28;20685;-56
2022/10/17 03:52:47;;;;;;;21.40;10.18;;;;;;;3.53;90.22;98357.47;4985045;28;20074;-56
2022/10/17 03:55:14;;;;;;;22.60;9.93;;;;;;;2.97;90.26;98266.19;4999411;28;20050;-59
2022/10/17 03:57:41;;;;;;;15.57;7.82;;;;;;;3.68;90.08;98397.56;4985989;28;20102;-56
2022/10/17 04:00:11;;;;;;;10.40;5.97;;;;;;;3.94;90.61;98427.09;5003044;28;20062;-56
2022/10/17 04:02:38;;;;;;;13.52;7.72;;;;;;;3.24;89.62;98343.03;4988467;28;20117;-56
2022/10/17 04:05:05;;;;;;;13.05;7.05;;;;;;;3.80;90.60;98445.38;4988465;28;20733;-56
2022/10/17 04:07:32;;;;;;;12.15;7.45;;;;;;;3.82;90.55;98458.78;4988728;28;20058;-56
2022/10/17 04:09:59;;;;;;;15.95;8.23;;;;;;;3.80;91.31;98458.25;4988797;28;20186;-58
2022/10/17 04:12:25;;;;;;;16.83;8.73;;;;;;;3.71;89.46;98451.78;4988802;28;20082;-58
2022/10/17 04:14:52;;;;;;;16.75;7.68;;;;;;;3.72;89.58;98437.78;4989004;28;20061;-61
2022/10/17 04:17:19;;;;;;;14.75;7.63;;;;;;;3.24;90.52;98384.09;4988294;28;20489;-56
2022/10/17 04:19:47;;;;;;;14.60;7.75;;;;;;;3.24;90.63;98384.09;5003415;28;20050;-57
2022/10/17 04:22:14;;;;;;;14.13;7.53;;;;;;;3.18;90.96;98390.75;4988066;28;20581;-56
2022/10/17 04:24:41;;;;;;;19.45;8.68;;;;;;;3.26;92.47;98408.47;4988502;28;20116;-57
2022/10/17 04:27:07;;;;;;;29.55;12.82;;;;;;;3.56;93.45;98450.03;4988404;28;20141;-57
2022/10/17 04:29:34;;;;;;;25.38;12.02;;;;;;;3.66;93.80;98441.72;4988166;28;20050;-57
2022/10/17 04:32:01;;;;;;;17.73;10.60;;;;;;;1.81;92.79;98153.66;5002424;28;20081;-56
2022/10/17 04:34:27;;;;;;;19.58;10.20;;;;;;;3.77;93.45;98451.44;4986441;28;20092;-59
2022/10/17 04:36:54;;;;;;;22.52;10.68;;;;;;;3.95;92.85;98461.63;5003141;28;20046;-57
2022/10/17 04:39:21;;;;;;;20.98;11.60;;;;;;;2.94;93.27;98338.72;4987848;28;20597;-58
2022/10/17 04:41:47;;;;;;;17.95;10.35;;;;;;;3.70;92.97;98423.56;4987776;28;20137;-58
2022/10/17 04:44:14;;;;;;;16.90;9.43;;;;;;;3.86;92.08;98465.28;5004797;28;20161;-57
2022/10/17 04:46:41;;;;;;;21.27;9.27;;;;;;;3.71;91.40;98441.66;5007259;28;20053;-55
2022/10/17 04:49:07;;;;;;;22.15;11.48;;;;;;;3.90;91.30;98455.41;5007736;28;20147;-55
2022/10/17 04:51:34;;;;;;;21.33;11.88;;;;;;;3.70;92.79;98407.13;5021694;28;20089;-55
2022/10/17 04:54:01;;;;;;;28.80;13.40;;;;;;;4.02;90.78;98447.56;5027149;28;20057;-57
2022/10/17 04:56:27;;;;;;;22.90;13.20;;;;;;;4.19;92.14;98480.78;5026831;28;20581;-55
2022/10/17 04:58:54;;;;;;;29.60;14.43;;;;;;;4.25;91.47;98469.44;5027409;28;20140;-56
2022/10/17 05:01:22;;;;;;;28.58;12.68;;;;;;;4.25;90.13;98469.44;5025274;28;20661;-56
2022/10/17 05:03:49;;;;;;;31.52;12.48;;;;;;;4.22;91.30;98475.53;5025470;28;20068;-56
2022/10/17 05:06:19;;;;;;;57.05;41.50;;;;;;;4.30;91.11;98469.38;5026612;28;20080;-56
2022/10/17 05:08:47;;;;;;;29.80;13.48;;;;;;;4.34;90.40;98484.16;5024835;28;20143;-55
2022/10/17 05:11:27;;;;;;;22.50;15.40;;;;;;;3.89;89.39;98397.00;5026257;28;20586;-57
2022/10/17 05:13:56;;;;;;;27.48;13.00;;;;;;;4.36;89.26;98481.13;5025249;28;20064;-57
2022/10/17 05:16:24;;;;;;;34.30;21.95;;;;;;;4.02;88.42;98437.41;5026842;28;20055;-56
2022/10/17 05:18:54;;;;;;;30.77;17.30;;;;;;;4.22;89.00;98439.88;5026687;28;20061;-56
2022/10/17 05:21:23;;;;;;;29.50;16.83;;;;;;;4.72;89.19;98495.13;5026640;28;20053;-56
2022/10/17 05:23:50;;;;;;;33.58;18.70;;;;;;;4.76;87.53;98499.72;5025168;28;20614;-57
2022/10/17 05:26:17;;;;;;;36.10;16.90;;;;;;;4.52;87.09;98458.66;5026119;28;20107;-58
2022/10/17 05:28:43;;;;;;;24.25;12.40;;;;;;;4.89;88.17;98511.88;5026424;28;20554;-56
2022/10/17 05:31:11;;;;;;;26.95;13.77;;;;;;;4.64;87.92;98434.34;5026424;28;20057;-57
2022/10/17 05:33:38;;;;;;;17.38;10.25;;;;;;;5.17;88.56;98516.41;5026127;28;20089;-57
2022/10/17 05:36:06;;;;;;;17.85;9.57;;;;;;;5.36;87.91;98508.94;5025980;28;20115;-57
2022/10/17 05:38:33;;;;;;;19.10;10.18;;;;;;;5.24;87.05;98475.63;5026351;28;20077;-58
2022/10/17 05:41:01;;;;;;;17.20;9.48;;;;;;;5.53;86.30;98478.97;5025676;28;20498;-57
2022/10/17 05:43:28;;;;;;;28.58;11.68;;;;;;;5.98;85.26;98519.34;5024596;28;20076;-56
2022/10/17 05:45:55;;;;;;;22.52;12.25;;;;;;;5.89;83.20;98488.19;5025781;28;20085;-57
2022/10/17 05:48:22;;;;;;;23.02;12.60;;;;;;;5.26;84.87;98412.97;5024482;28;20077;-56
2022/10/17 05:50:49;;;;;;;28.13;10.85;;;;;;;6.12;82.99;98498.16;5010108;28;20107;-56
2022/10/17 05:53:16;;;;;;;20.67;9.98;;;;;;;6.35;82.16;98527.41;5006765;28;21279;-68
2022/10/17 05:55:42;;;;;;;14.25;8.07;;;;;;;6.46;81.06;98539.84;5014357;28;20531;-56
2022/10/17 05:58:09;;;;;;;16.05;8.38;;;;;;;6.56;80.11;98525.84;5024527;28;20144;-56
2022/10/17 06:00:47;;;;;;;16.17;8.48;;;;;;;6.75;79.09;98534.78;5025347;28;20586;-56
2022/10/17 06:03:14;;;;;;;19.58;7.60;;;;;;;6.93;78.79;98536.59;5025611;28;20111;-66
2022/10/17 06:05:41;;;;;;;12.65;7.63;;;;;;;7.12;77.68;98534.50;5025134;28;20089;-66
2022/10/17 06:08:07;;;;;;;14.18;8.07;;;;;;;7.30;77.48;98543.72;5015179;28;20133;-66
2022/10/17 06:10:34;;;;;;;15.50;9.50;;;;;;;7.54;76.47;98533.16;5005787;28;20100;-68
2022/10/17 06:13:00;;;;;;;17.38;9.60;;;;;;;7.41;77.46;98540.38;5004741;28;20140;-67
2022/10/17 06:15:27;;;;;;;18.05;9.07;;;;;;;7.62;76.49;98538.75;5006121;28;20504;-69
2022/10/17 06:17:54;;;;;;;17.88;8.48;;;;;;;7.17;75.78;98437.13;5005842;28;20077;-70
2022/10/17 06:20:20;;;;;;;15.95;8.60;;;;;;;7.49;74.86;98473.47;5005288;28;20539;-67
2022/10/17 06:22:47;;;;;;;15.68;8.63;;;;;;;8.02;75.33;98536.88;5004915;28;20081;-67
2022/10/17 06:25:13;;;;;;;16.52;8.68;;;;;;;8.15;76.01;98551.69;5005130;28;20092;-68
2022/10/17 06:27:40;;;;;;;26.55;9.20;;;;;;;8.34;75.51;98527.47;5003804;28;20053;-66
2022/10/17 06:30:07;;;;;;;19.33;9.25;;;;;;;8.68;73.82;98539.41;5004795;28;20059;-64
2022/10/17 06:32:34;;;;;;;16.65;7.72;;;;;;;8.94;73.27;98558.81;5005369;28;20054;-66
2022/10/17 06:35:00;;;;;;;18.42;7.43;;;;;;;9.20;72.49;98556.88;5005606;28;20587;-68
2022/10/17 06:37:31;;;;;;;12.23;5.57;;;;;;;9.39;71.76;98560.13;4993444;28;20069;-64
2022/10/17 06:40:03;;;;;;;11.18;5.72;;;;;;;9.54;70.90;98556.88;5024051;28;20158;-60
2022/10/17 06:42:29;;;;;;;8.60;4.80;;;;;;;9.24;69.95;98452.81;4992445;28;20042;-65
2022/10/17 06:44:56;;;;;;;11.73;4.90;;;;;;;9.20;69.56;98391.81;5006064;28;20080;-62
2022/10/17 06:47:22;;;;;;;9.70;5.07;;;;;;;9.90;68.36;98460.44;5012065;28;20105;-61
2022/10/17 06:49:49;;;;;;;12.32;5.55;;;;;;;10.39;67.35;98484.69;4997112;28;20085;-62
2022/10/17 06:52:16;;;;;;;10.30;5.47;;;;;;;11.07;65.68;98554.69;4985443;28;20137;-59
2022/10/17 06:54:43;;;;;;;11.43;5.45;;;;;;;11.41;67.20;98552.47;4985254;28;20539;-61
2022/10/17 06:57:10;;;;;;;16.15;5.45;;;;;;;11.70;64.73;98551.59;4985700;28;20104;-68
2022/10/17 06:59:36;;;;;;;15.93;5.70;;;;;;;11.14;63.25;98449.59;5003770;28;20054;-66
2022/10/17 07:02:04;;;;;;;11.88;5.30;;;;;;;11.95;63.25;98543.00;4995507;28;20065;-61
2022/10/17 07:04:31;;;;;;;12.75;5.32;;;;;;;11.51;63.33;98470.78;4985044;28;20089;-60
2022/10/17 07:06:58;;;;;;;12.23;4.53;;;;;;;12.13;63.81;98547.25;4989501;28;20046;-61
2022/10/17 07:09:26;;;;;;;9.60;4.65;;;;;;;12.29;64.02;98552.13;5004310;28;20121;-56
2022/10/17 07:11:53;;;;;;;7.85;4.72;;;;;;;11.78;61.89;98475.75;5001040;28;20520;-58
2022/10/17 07:14:19;;;;;;;11.18;4.80;;;;;;;12.55;60.56;98555.41;5003730;28;20132;-57
2022/10/17 07:16:46;;;;;;;7.75;4.50;;;;;;;12.71;60.44;98554.38;4986793;28;20065;-63
2022/10/17 07:19:13;;;;;;;8.93;4.10;;;;;;;12.85;58.28;98549.25;4988328;28;20496;-60
2022/10/17 07:21:39;;;;;;;13.48;6.07;;;;;;;13.04;57.49;98565.41;4983925;28;20088;-59
2022/10/17 07:24:06;;;;;;;6.50;4.28;;;;;;;13.24;56.66;98568.03;4993884;28;20104;-60
2022/10/17 07:26:33;;;;;;;8.70;4.88;;;;;;;13.46;56.07;98564.75;4997818;28;20487;-59
2022/10/17 07:29:00;;;;;;;6.57;4.30;;;;;;;13.41;56.84;98533.56;5004543;28;20061;-59
2022/10/17 07:31:27;;;;;;;9.57;5.10;;;;;;;13.90;56.59;98562.03;5004297;28;20053;-58
2022/10/17 07:33:54;;;;;;;10.52;5.03;;;;;;;13.52;55.48;98527.13;5004503;28;20049;-59
2022/10/17 07:36:20;;;;;;;8.82;4.88;;;;;;;13.76;56.11;98528.19;5004496;28;20662;-58
2022/10/17 07:38:47;;;;;;;7.18;4.40;;;;;;;14.23;55.55;98570.91;5004375;28;20526;-59
2022/10/17 07:41:13;;;;;;;9.48;5.03;;;;;;;13.93;55.17;98472.97;5000146;28;20077;-61
2022/10/17 07:43:47;;;;;;;39.72;20.58;;;;;;;14.00;54.28;98461.22;4990163;28;20054;-65
2022/10/17 07:46:13;;;;;;;7.15;5.18;;;;;;;14.72;53.74;98566.66;4990066;28;20655;-61
2022/10/17 07:48:40;;;;;;;8.65;5.03;;;;;;;14.31;52.61;98475.19;4990700;28;20054;-63
2022/10/17 07:51:08;;;;;;;8.88;4.47;;;;;;;14.62;52.30;98567.22;4982821;28;20081;-61
2022/10/17 07:53:36;;;;;;;9.68;4.82;;;;;;;14.36;52.64;98478.53;4984425;28;20050;-60
2022/10/17 07:56:07;;;;;;;11.80;5.05;;;;;;;14.99;52.84;98560.16;4986922;28;20050;-62
2022/10/17 07:58:35;;;;;;;9.45;4.88;;;;;;;15.12;51.87;98553.31;4986450;28;20108;-60
2022/10/17 08:01:05;;;;;;;7.82;4.55;;;;;;;14.94;50.27;98501.84;4983437;28;20089;-60
2022/10/17 08:03:36;;;;;;;6.35;4.13;;;;;;;15.07;48.82;98506.97;4994040;28;20105;-59
2022/10/17 08:06:02;;;;;;;10.38;5.10;;;;;;;15.64;48.74;98559.31;4998420;28;20116;-58
2022/10/17 08:08:29;;;;;;;5.65;3.70;;;;;;;15.70;46.82;98545.84;4999123;28;20418;-63
2022/10/17 08:11:02;;;;;;;6.78;3.95;;;;;;;15.55;47.67;98528.00;4993379;28;20137;-63
2022/10/17 08:13:29;;;;;;;8.77;4.45;;;;;;;16.00;47.04;98555.25;4992089;28;20081;-65
2022/10/17 08:16:04;;;;;;;4.55;3.55;;;;;;;15.71;45.00;98511.94;5003811;28;20058;-59
2022/10/17 08:18:30;;;;;;;8.52;4.20;;;;;;;15.32;43.94;98395.03;5003950;28;20512;-64
2022/10/17 08:21:02;;;;;;;7.80;3.80;;;;;;;16.07;42.85;98550.63;5004378;28;20120;-58
2022/10/17 08:23:28;;;;;;;5.20;3.60;;;;;;;15.54;43.49;98557.09;5004562;28;20153;-59
2022/10/17 08:25:59;;;;;;;6.85;3.75;;;;;;;15.81;44.88;98553.28;5003747;28;20085;-59
2022/10/17 08:28:25;;;;;;;5.70;3.67;;;;;;;16.19;45.07;98553.25;5002592;28;20153;-58
2022/10/17 08:30:52;;;;;;;6.55;3.95;;;;;;;15.88;43.28;98547.84;5003628;28;20057;-59
2022/10/17 08:33:19;;;;;;;8.35;4.95;;;;;;;16.05;40.80;98524.22;5004053;28;20050;-58
2022/10/17 08:35:45;;;;;;;5.32;3.10;;;;;;;15.97;39.64;98550.41;5004036;28;20104;-59
2022/10/17 08:38:12;;;;;;;4.40;3.72;;;;;;;14.43;41.86;98269.56;4994594;28;20098;-59
2022/10/17 08:40:41;;;;;;;7.00;3.38;;;;;;;15.99;41.03;98546.06;5000825;28;20595;-76
2022/10/17 08:43:29;;;;;;;3.90;3.33;;;;;;;15.92;40.83;98548.72;4993840;28;20054;-60
2022/10/17 08:46:06;;;;;;;3.90;3.35;;;;;;;16.25;41.47;98546.16;4995336;28;20528;-58
2022/10/17 08:48:45;;;;;;;6.75;3.88;;;;;;;16.04;41.79;98514.22;5017136;28;20563;-59
2022/10/17 08:51:20;;;;;;;6.70;3.42;;;;;;;15.94;41.75;98405.81;4999393;28;20055;-65
2022/10/17 08:54:14;;;;;;;5.30;3.55;;;;;;;16.99;42.52;98538.31;4994214;28;20134;-60
2022/10/17 08:56:48;;;;;;;6.60;4.47;;;;;;;16.82;39.60;98508.03;4987288;28;20054;-67
2022/10/17 08:59:27;;;;;;;8.30;5.85;;;;;;;16.90;40.72;98520.97;4999939;28;20141;-57
2022/10/17 09:02:28;;;;;;;6.80;3.25;;;;;;;17.25;39.97;98532.69;5005839;28;20145;-60
2022/10/17 09:05:00;;;;;;;6.57;4.47;;;;;;;17.18;40.49;98538.19;5000798;28;20054;-58
2022/10/17 09:08:06;;;;;;;4.37;3.83;;;;;;;16.64;38.94;98430.19;5006713;28;20216;-61
2022/10/17 09:11:16;;;;;;;4.60;3.17;;;;;;;17.59;39.61;98538.00;5006240;28;20058;-59
2022/10/17 09:14:04;;;;;;;4.97;3.20;;;;;;;17.66;38.10;98537.28;4998301;28;20132;-60
2022/10/17 09:16:58;;;;;;;6.05;3.70;;;;;;;17.51;38.77;98518.69;5006399;28;20050;-58
2022/10/17 09:19:34;;;;;;;4.63;3.00;;;;;;;17.60;38.43;98547.22;5006744;28;20054;-59
2022/10/17 09:22:05;;;;;;;7.00;4.13;;;;;;;17.53;38.17;98471.50;5006635;28;20085;-58
2022/10/17 09:24:34;;;;;;;4.90;3.85;;;;;;;17.47;35.53;98531.84;5004243;28;20461;-59
2022/10/17 09:27:02;;;;;;;4.97;3.30;;;;;;;17.35;35.08;98529.25;4989662;28;20145;-61
2022/10/17 09:29:28;;;;;;;6.28;3.05;;;;;;;16.33;35.76;98306.59;4990638;28;20108;-58
2022/10/17 09:32:17;;;;;;;;;;;;;;;17.72;35.15;98521.78;5007074;28;20120;-60
2022/10/17 09:34:44;;;;;;;5.80;3.22;;;;;;;17.97;35.09;98514.47;4994144;28;19957;-64
2022/10/17 09:37:16;;;;;;;4.85;2.42;;;;;;;17.74;33.76;98447.31;4985573;28;20138;-57
2022/10/17 09:39:43;;;;;;;3.42;2.60;;;;;;;17.92;33.10;98467.16;4987157;28;20062;-63
2022/10/17 09:42:20;;;;;;;4.38;2.83;;;;;;;17.22;33.82;98455.84;4985488;28;20058;-64
2022/10/17 09:44:57;;;;;;;4.68;2.85;;;;;;;17.54;34.52;98512.31;4986698;28;20138;-62
2022/10/17 09:47:50;;;;;;;4.53;2.65;;;;;;;17.84;34.41;98511.13;4985457;28;20482;-63
2022/10/17 09:50:29;;;;;;;4.18;2.50;;;;;;;17.89;34.46;98467.91;4982187;28;20124;-63
2022/10/17 09:53:09;;;;;;;3.03;2.33;;;;;;;18.46;34.18;98509.41;5010848;28;20131;-63
2022/10/17 09:55:42;;;;;;;2.78;2.45;;;;;;;18.68;34.25;98511.22;5025750;28;20496;-63
2022/10/17 09:58:10;;;;;;;3.88;2.90;;;;;;;18.77;34.09;98505.25;5025818;28;20135;-63
2022/10/17 10:00:38;;;;;;;4.95;2.55;;;;;;;18.85;34.34;98482.47;5025535;28;20150;-64
2022/10/17 10:03:21;;;;;;;3.30;2.67;;;;;;;19.22;33.25;98502.00;5024388;28;20050;-63
2022/10/17 10:06:06;;;;;;;2.97;2.10;;;;;;;19.30;33.57;98482.00;5025410;28;20151;-64
2022/10/17 10:08:36;;;;;;;3.08;2.30;;;;;;;19.46;33.60;98496.53;5025262;28;20120;-64
2022/10/17 10:11:07;;;;;;;2.28;2.00;;;;;;;19.37;33.01;98459.56;4993946;28;20046;-63
2022/10/17 10:13:39;;;;;;;2.60;2.15;;;;;;;18.58;33.30;98377.19;4993513;28;20132;-60
2022/10/17 10:16:23;;;;;;;3.13;2.30;;;;;;;19.57;32.81;98484.56;5005898;28;20069;-62
2022/10/17 10:18:50;;;;;;;7.20;3.10;;;;;;;19.70;33.65;98478.19;5001082;28;20054;-60
2022/10/17 10:21:20;;;;;;;2.45;2.20;;;;;;;18.98;33.01;98447.28;4997233;28;20535;-63
2022/10/17 10:24:02;;;;;;;2.92;2.13;;;;;;;19.35;34.36;98439.47;5001672;28;20054;-60
2022/10/17 10:26:49;;;;;;;3.67;2.08;;;;;;;19.83;33.91;98470.19;5005394;28;20090;-61
2022/10/17 10:29:38;;;;;;;2.95;2.17;;;;;;;18.88;33.26;98301.97;5005117;28;20054;-62
2022/10/17 10:32:30;;;;;;;4.05;2.00;;;;;;;19.48;33.00;98375.28;5005812;28;20096;-66
2022/10/17 10:35:21;;;;;;;2.70;2.42;;;;;;;20.07;34.13;98458.22;4985627;28;20778;-60
2022/10/17 10:37:57;;;;;;;3.80;2.10;;;;;;;19.26;34.09;98458.69;4985130;28;20145;-62
2022/10/17 10:40:37;;;;;;;3.55;1.92;;;;;;;19.34;34.51;98449.13;4993717;28;20133;-60
2022/10/17 10:43:05;;;;;;;2.88;1.95;;;;;;;19.76;34.87;98453.31;5005484;28;20061;-64
2022/10/17 10:45:34;;;;;;;4.80;2.45;;;;;;;19.91;34.27;98446.50;4986693;28;20097;-61
2022/10/17 10:48:33;;;;;;;4.93;1.98;;;;;;;19.83;34.56;98426.00;4989049;28;20571;-64
2022/10/17 10:51:17;;;;;;;5.03;2.30;;;;;;;20.19;33.93;98443.78;4994477;28;20053;-60
2022/10/17 10:53:55;;;;;;;4.10;2.33;;;;;;;19.94;34.62;98397.91;5041390;28;20959;-59
2022/10/17 10:56:28;;;;;;;2.65;1.85;;;;;;;20.44;33.91;98438.97;5043861;28;20131;-65
2022/10/17 10:59:07;;;;;;;2.05;1.88;;;;;;;20.52;33.29;98437.78;5038414;28;20048;-65
2022/10/17 11:01:49;;;;;;;2.80;2.13;;;;;;;20.67;33.64;98430.97;5029018;28;20127;-65
2022/10/17 11:04:28;;;;;;;4.28;2.83;;;;;;;20.81;33.72;98431.75;5035729;28;20492;-62
2022/10/17 11:07:12;;;;;;;6.15;3.08;;;;;;;20.51;33.25;98368.59;5041332;28;20539;-66
2022/10/17 11:09:45;;;;;;;7.40;4.90;;;;;;;20.99;33.52;98426.13;5036868;28;20469;-70
2022/10/17 11:12:26;;;;;;;6.55;3.03;;;;;;;21.06;33.33;98431.72;5024268;28;20053;-69
2022/10/17 11:15:02;;;;;;;5.60;4.95;;;;;;;21.25;32.91;98413.56;5024472;28;20502;-66
2022/10/17 11:17:38;;;;;;;5.30;2.30;;;;;;;21.39;32.50;98422.78;5027558;28;20075;-61
2022/10/17 11:20:07;;;;;;;2.58;2.35;;;;;;;21.34;32.13;98431.66;5024227;28;20084;-59
2022/10/17 11:22:59;;;;;;;4.85;4.35;;;;;;;21.00;32.17;98416.47;5024383;28;20139;-60
2022/10/17 11:25:39;;;;;;;4.72;3.03;;;;;;;21.15;32.46;98420.84;5022514;28;20096;-63
2022/10/17 11:28:13;;;;;;;3.08;2.78;;;;;;;21.08;31.79;98405.97;5024149;28;20145;-63
2022/10/17 11:30:47;;;;;;;3.67;2.25;;;;;;;21.12;32.39;98406.78;5023856;28;20607;-62
2022/10/17 11:33:19;;;;;;;2.55;2.35;;;;;;;21.20;32.07;98403.50;5023773;28;20081;-62
2022/10/17 11:35:50;;;;;;;4.60;2.42;;;;;;;21.23;32.83;98402.69;5023852;28;20144;-60
2022/10/17 11:38:38;;;;;;;4.50;2.50;;;;;;;21.30;32.45;98397.03;5023182;28;20057;-58
2022/10/17 11:41:09;;;;;;;4.32;2.60;;;;;;;21.35;32.65;98385.34;5032113;28;20053;-63
2022/10/17 11:44:19;;;;;;;6.30;3.50;;;;;;;20.79;33.22;98388.28;5024109;28;20103;-66
2022/10/17 11:46:53;;;;;;;2.83;2.33;;;;;;;20.96;32.16;98393.09;5034380;28;20080;-62
2022/10/17 11:49:26;;;;;;;3.10;1.83;;;;;;;21.08;32.13;98389.06;5040138;28;20167;-66
2022/10/17 11:52:35;;;;;;;3.15;2.20;;;;;;;21.13;31.98;98386.63;5038720;28;20053;-65
2022/10/17 11:55:26;;;;;;;2.55;2.05;;;;;;;20.89;31.69;98343.19;5041068;28;20132;-68